sensor_id;sensor_type;location;lat;lon;timestamp;P1;durP1;ratioP1;P2;durP2;ratioP2
4486;SDS011;2256;48.740;9.106;2022-11-25T00:02:22;22.38;;;5.00;;
4486;SDS011;2256;48.740;9.106;2022-11-25T00:04:49;13.15;;;5.13;;
4486;SDS011;2256;48.740;9.106;2022-11-25T00:07:18;16.55;;;4.65;;
4486;SDS011;2256;48.740;9.106;2022-11-25T00:09:46;11.93;;;4.75;;
4486;SDS011;2256;48.740;9.106;2022-11-25T00:12:13;20.88;;;5.38;;
4486;SDS011;2256;48.740;9.106;2022-11-25T00:14:40;14.20;;;5.00;;
4486;SDS011;2256;48.740;9.106;2022-11-25T00:17:09;25.10;;;5.00;;
4486;SDS011;2256;48.740;9.106;2022-11-25T00:19:35;9.90;;;4.68;;
4486;SDS011;2256;48.740;9.106;2022-11-25T00:22:02;18.33;;;4.25;;
4486;SDS011;2256;48.740;9.106;2022-11-25T00:24:31;19.20;;;4.45;;
4486;SDS011;2256;48.740;9.106;2022-11-25T00:26:58;15.90;;;4.05;;
4486;SDS011;2256;48.740;9.106;2022-11-25T00:29:28;12.93;;;5.15;;
4486;SDS011;2256;48.740;9.106;2022-11-25T00:31:55;19.67;;;4.60;;
4486;SDS011;2256;48.740;9.106;2022-11-25T00:34:23;18.48;;;4.38;;
4486;SDS011;2256;48.740;9.106;2022-11-25T00:36:50;11.13;;;4.57;;
4486;SDS011;2256;48.740;9.106;2022-11-25T00:39:20;14.63;;;5.10;;
4486;SDS011;2256;48.740;9.106;2022-11-25T00:41:49;22.80;;;5.15;;
4486;SDS011;2256;48.740;9.106;2022-11-25T00:44:33;13.75;;;4.50;;
4486;SDS011;2256;48.740;9.106;2022-11-25T00:47:00;14.30;;;3.90;;
4486;SDS011;2256;48.740;9.106;2022-11-25T00:49:31;21.38;;;4.60;;
4486;SDS011;2256;48.740;9.106;2022-11-25T00:51:58;19.73;;;3.92;;
4486;SDS011;2256;48.740;9.106;2022-11-25T00:54:25;13.95;;;4.70;;
4486;SDS011;2256;48.740;9.106;2022-11-25T00:56:51;8.68;;;3.63;;
4486;SDS011;2256;48.740;9.106;2022-11-25T00:59:19;14.40;;;4.18;;
4486;SDS011;2256;48.740;9.106;2022-11-25T01:01:45;9.80;;;3.78;;
4486;SDS011;2256;48.740;9.106;2022-11-25T01:04:12;12.13;;;4.20;;
4486;SDS011;2256;48.740;9.106;2022-11-25T01:06:41;25.38;;;4.80;;
4486;SDS011;2256;48.740;9.106;2022-11-25T01:09:09;15.85;;;4.13;;
4486;SDS011;2256;48.740;9.106;2022-11-25T01:11:38;10.70;;;4.40;;
4486;SDS011;2256;48.740;9.106;2022-11-25T01:14:06;18.65;;;4.63;;
4486;SDS011;2256;48.740;9.106;2022-11-25T01:16:34;23.52;;;4.40;;
4486;SDS011;2256;48.740;9.106;2022-11-25T01:19:02;14.63;;;5.10;;
4486;SDS011;2256;48.740;9.106;2022-11-25T01:21:31;17.10;;;3.90;;
4486;SDS011;2256;48.740;9.106;2022-11-25T01:24:02;18.90;;;4.20;;
4486;SDS011;2256;48.740;9.106;2022-11-25T01:26:31;17.27;;;4.03;;
4486;SDS011;2256;48.740;9.106;2022-11-25T01:28:59;10.05;;;4.13;;
4486;SDS011;2256;48.740;9.106;2022-11-25T01:31:28;13.25;;;3.92;;
4486;SDS011;2256;48.740;9.106;2022-11-25T01:33:58;11.13;;;4.70;;
4486;SDS011;2256;48.740;9.106;2022-11-25T01:36:26;15.38;;;4.55;;
4486;SDS011;2256;48.740;9.106;2022-11-25T01:38:54;15.05;;;5.85;;
4486;SDS011;2256;48.740;9.106;2022-11-25T01:41:25;16.63;;;5.22;;
4486;SDS011;2256;48.740;9.106;2022-11-25T01:44:03;14.73;;;4.20;;
4486;SDS011;2256;48.740;9.106;2022-11-25T01:46:34;14.93;;;3.95;;
4486;SDS011;2256;48.740;9.106;2022-11-25T01:49:20;6.15;;;3.30;;
4486;SDS011;2256;48.740;9.106;2022-11-25T01:51:55;11.05;;;4.70;;
4486;SDS011;2256;48.740;9.106;2022-11-25T01:54:25;14.27;;;4.00;;
4486;SDS011;2256;48.740;9.106;2022-11-25T01:56:58;13.25;;;4.28;;
4486;SDS011;2256;48.740;9.106;2022-11-25T01:59:27;6.80;;;3.63;;
4486;SDS011;2256;48.740;9.106;2022-11-25T02:01:57;16.48;;;3.80;;
4486;SDS011;2256;48.740;9.106;2022-11-25T02:04:24;13.82;;;3.72;;
4486;SDS011;2256;48.740;9.106;2022-11-25T02:06:58;14.43;;;3.90;;
4486;SDS011;2256;48.740;9.106;2022-11-25T02:09:28;15.93;;;3.70;;
4486;SDS011;2256;48.740;9.106;2022-11-25T02:11:57;10.40;;;4.05;;
4486;SDS011;2256;48.740;9.106;2022-11-25T02:14:25;19.50;;;4.80;;
4486;SDS011;2256;48.740;9.106;2022-11-25T02:16:52;20.33;;;4.57;;
4486;SDS011;2256;48.740;9.106;2022-11-25T02:19:22;12.07;;;3.75;;
4486;SDS011;2256;48.740;9.106;2022-11-25T02:21:53;11.13;;;3.65;;
4486;SDS011;2256;48.740;9.106;2022-11-25T02:24:26;14.05;;;4.15;;
4486;SDS011;2256;48.740;9.106;2022-11-25T02:27:00;10.02;;;3.72;;
4486;SDS011;2256;48.740;9.106;2022-11-25T02:29:27;18.67;;;4.90;;
4486;SDS011;2256;48.740;9.106;2022-11-25T02:31:54;9.20;;;4.10;;
4486;SDS011;2256;48.740;9.106;2022-11-25T02:34:20;13.90;;;3.65;;
4486;SDS011;2256;48.740;9.106;2022-11-25T02:36:48;11.05;;;3.80;;
4486;SDS011;2256;48.740;9.106;2022-11-25T02:39:15;9.93;;;3.95;;
4486;SDS011;2256;48.740;9.106;2022-11-25T02:41:44;14.57;;;3.85;;
4486;SDS011;2256;48.740;9.106;2022-11-25T02:44:17;10.85;;;4.15;;
4486;SDS011;2256;48.740;9.106;2022-11-25T02:46:44;9.75;;;3.60;;
4486;SDS011;2256;48.740;9.106;2022-11-25T02:49:11;9.13;;;3.60;;
4486;SDS011;2256;48.740;9.106;2022-11-25T02:51:39;9.18;;;4.20;;
4486;SDS011;2256;48.740;9.106;2022-11-25T02:54:08;12.65;;;3.83;;
4486;SDS011;2256;48.740;9.106;2022-11-25T02:56:35;7.70;;;3.60;;
4486;SDS011;2256;48.740;9.106;2022-11-25T02:59:02;26.48;;;4.13;;
4486;SDS011;2256;48.740;9.106;2022-11-25T03:01:31;10.48;;;3.58;;
4486;SDS011;2256;48.740;9.106;2022-11-25T03:04:00;19.63;;;4.05;;
4486;SDS011;2256;48.740;9.106;2022-11-25T03:06:27;16.42;;;3.92;;
4486;SDS011;2256;48.740;9.106;2022-11-25T03:08:54;19.80;;;3.83;;
4486;SDS011;2256;48.740;9.106;2022-11-25T03:11:21;18.88;;;4.43;;
4486;SDS011;2256;48.740;9.106;2022-11-25T03:14:09;16.40;;;3.45;;
4486;SDS011;2256;48.740;9.106;2022-11-25T03:16:37;20.00;;;3.78;;
4486;SDS011;2256;48.740;9.106;2022-11-25T03:19:04;13.60;;;3.95;;
4486;SDS011;2256;48.740;9.106;2022-11-25T03:21:32;10.82;;;4.15;;
4486;SDS011;2256;48.740;9.106;2022-11-25T03:23:59;11.38;;;4.60;;
4486;SDS011;2256;48.740;9.106;2022-11-25T03:26:26;13.00;;;4.72;;
4486;SDS011;2256;48.740;9.106;2022-11-25T03:28:52;10.68;;;3.97;;
4486;SDS011;2256;48.740;9.106;2022-11-25T03:31:21;18.73;;;4.43;;
4486;SDS011;2256;48.740;9.106;2022-11-25T03:33:49;9.15;;;3.65;;
4486;SDS011;2256;48.740;9.106;2022-11-25T03:36:16;6.60;;;3.65;;
4486;SDS011;2256;48.740;9.106;2022-11-25T03:38:43;10.15;;;4.22;;
4486;SDS011;2256;48.740;9.106;2022-11-25T03:41:09;21.10;;;4.50;;
4486;SDS011;2256;48.740;9.106;2022-11-25T03:43:36;13.88;;;4.47;;
4486;SDS011;2256;48.740;9.106;2022-11-25T03:46:03;23.20;;;5.35;;
4486;SDS011;2256;48.740;9.106;2022-11-25T03:48:30;9.30;;;4.50;;
4486;SDS011;2256;48.740;9.106;2022-11-25T03:50:58;18.00;;;4.82;;
4486;SDS011;2256;48.740;9.106;2022-11-25T03:53:25;10.38;;;3.90;;
4486;SDS011;2256;48.740;9.106;2022-11-25T03:55:51;11.23;;;4.65;;
4486;SDS011;2256;48.740;9.106;2022-11-25T03:58:18;9.57;;;4.00;;
4486;SDS011;2256;48.740;9.106;2022-11-25T04:00:45;9.07;;;5.05;;
4486;SDS011;2256;48.740;9.106;2022-11-25T04:03:12;9.32;;;4.25;;
4486;SDS011;2256;48.740;9.106;2022-11-25T04:05:40;14.88;;;4.63;;
4486;SDS011;2256;48.740;9.106;2022-11-25T04:08:08;14.88;;;4.07;;
4486;SDS011;2256;48.740;9.106;2022-11-25T04:10:35;15.73;;;4.90;;
4486;SDS011;2256;48.740;9.106;2022-11-25T04:13:02;17.83;;;4.35;;
4486;SDS011;2256;48.740;9.106;2022-11-25T04:15:28;9.33;;;3.80;;
4486;SDS011;2256;48.740;9.106;2022-11-25T04:17:55;14.20;;;3.83;;
4486;SDS011;2256;48.740;9.106;2022-11-25T04:20:23;11.18;;;4.10;;
4486;SDS011;2256;48.740;9.106;2022-11-25T04:22:50;16.52;;;4.82;;
4486;SDS011;2256;48.740;9.106;2022-11-25T04:25:18;12.13;;;3.63;;
4486;SDS011;2256;48.740;9.106;2022-11-25T04:27:46;8.88;;;3.92;;
4486;SDS011;2256;48.740;9.106;2022-11-25T04:30:13;14.13;;;4.60;;
4486;SDS011;2256;48.740;9.106;2022-11-25T04:32:39;14.25;;;4.70;;
4486;SDS011;2256;48.740;9.106;2022-11-25T04:35:07;11.77;;;5.03;;
4486;SDS011;2256;48.740;9.106;2022-11-25T04:37:34;28.02;;;5.90;;
4486;SDS011;2256;48.740;9.106;2022-11-25T04:40:01;12.45;;;4.70;;
4486;SDS011;2256;48.740;9.106;2022-11-25T04:42:30;13.45;;;6.47;;
4486;SDS011;2256;48.740;9.106;2022-11-25T04:44:57;13.98;;;6.55;;
4486;SDS011;2256;48.740;9.106;2022-11-25T04:47:23;16.00;;;6.43;;
4486;SDS011;2256;48.740;9.106;2022-11-25T04:49:50;19.02;;;6.40;;
4486;SDS011;2256;48.740;9.106;2022-11-25T04:52:17;23.80;;;6.68;;
4486;SDS011;2256;48.740;9.106;2022-11-25T04:54:45;25.98;;;9.00;;
4486;SDS011;2256;48.740;9.106;2022-11-25T04:57:12;16.52;;;6.93;;
4486;SDS011;2256;48.740;9.106;2022-11-25T04:59:40;12.27;;;5.32;;
4486;SDS011;2256;48.740;9.106;2022-11-25T05:02:11;21.65;;;5.25;;
4486;SDS011;2256;48.740;9.106;2022-11-25T05:04:39;13.32;;;5.40;;
4486;SDS011;2256;48.740;9.106;2022-11-25T05:07:07;14.05;;;4.55;;
4486;SDS011;2256;48.740;9.106;2022-11-25T05:09:34;20.30;;;5.53;;
4486;SDS011;2256;48.740;9.106;2022-11-25T05:12:01;13.55;;;4.63;;
4486;SDS011;2256;48.740;9.106;2022-11-25T05:14:28;12.23;;;5.30;;
4486;SDS011;2256;48.740;9.106;2022-11-25T05:16:57;14.05;;;4.80;;
4486;SDS011;2256;48.740;9.106;2022-11-25T05:19:24;13.30;;;4.50;;
4486;SDS011;2256;48.740;9.106;2022-11-25T05:21:51;8.23;;;3.75;;
4486;SDS011;2256;48.740;9.106;2022-11-25T05:24:18;11.80;;;4.35;;
4486;SDS011;2256;48.740;9.106;2022-11-25T05:26:44;10.55;;;4.32;;
4486;SDS011;2256;48.740;9.106;2022-11-25T05:29:11;12.45;;;5.18;;
4486;SDS011;2256;48.740;9.106;2022-11-25T05:31:38;15.00;;;5.05;;
4486;SDS011;2256;48.740;9.106;2022-11-25T05:34:06;24.90;;;5.07;;
4486;SDS011;2256;48.740;9.106;2022-11-25T05:36:33;14.35;;;5.20;;
4486;SDS011;2256;48.740;9.106;2022-11-25T05:39:00;11.43;;;5.45;;
4486;SDS011;2256;48.740;9.106;2022-11-25T05:41:27;16.60;;;5.82;;
4486;SDS011;2256;48.740;9.106;2022-11-25T05:43:54;21.63;;;5.30;;
4486;SDS011;2256;48.740;9.106;2022-11-25T05:46:21;11.75;;;4.72;;
4486;SDS011;2256;48.740;9.106;2022-11-25T05:48:51;18.98;;;5.50;;
4486;SDS011;2256;48.740;9.106;2022-11-25T05:51:22;11.23;;;6.45;;
4486;SDS011;2256;48.740;9.106;2022-11-25T05:53:49;12.38;;;5.03;;
4486;SDS011;2256;48.740;9.106;2022-11-25T05:56:17;17.08;;;4.97;;
4486;SDS011;2256;48.740;9.106;2022-11-25T05:58:44;13.75;;;6.05;;
4486;SDS011;2256;48.740;9.106;2022-11-25T06:01:12;12.73;;;5.40;;
4486;SDS011;2256;48.740;9.106;2022-11-25T06:03:40;18.52;;;6.18;;
4486;SDS011;2256;48.740;9.106;2022-11-25T06:06:08;13.43;;;4.97;;
4486;SDS011;2256;48.740;9.106;2022-11-25T06:08:37;20.15;;;5.57;;
4486;SDS011;2256;48.740;9.106;2022-11-25T06:11:05;19.20;;;5.95;;
4486;SDS011;2256;48.740;9.106;2022-11-25T06:13:31;11.02;;;5.22;;
4486;SDS011;2256;48.740;9.106;2022-11-25T06:15:58;14.88;;;4.80;;
4486;SDS011;2256;48.740;9.106;2022-11-25T06:18:25;11.48;;;4.85;;
4486;SDS011;2256;48.740;9.106;2022-11-25T06:20:56;19.45;;;5.25;;
4486;SDS011;2256;48.740;9.106;2022-11-25T06:23:23;11.73;;;5.75;;
4486;SDS011;2256;48.740;9.106;2022-11-25T06:25:52;13.40;;;5.28;;
4486;SDS011;2256;48.740;9.106;2022-11-25T06:28:21;14.70;;;6.03;;
4486;SDS011;2256;48.740;9.106;2022-11-25T06:30:48;12.05;;;4.85;;
4486;SDS011;2256;48.740;9.106;2022-11-25T06:33:14;13.35;;;5.60;;
4486;SDS011;2256;48.740;9.106;2022-11-25T06:35:42;17.52;;;5.50;;
4486;SDS011;2256;48.740;9.106;2022-11-25T06:38:10;9.88;;;4.80;;
4486;SDS011;2256;48.740;9.106;2022-11-25T06:40:37;15.02;;;4.97;;
4486;SDS011;2256;48.740;9.106;2022-11-25T06:43:06;12.68;;;5.10;;
4486;SDS011;2256;48.740;9.106;2022-11-25T06:45:33;15.25;;;5.03;;
4486;SDS011;2256;48.740;9.106;2022-11-25T06:47:59;10.63;;;4.88;;
4486;SDS011;2256;48.740;9.106;2022-11-25T06:50:26;17.50;;;5.35;;
4486;SDS011;2256;48.740;9.106;2022-11-25T06:52:53;13.80;;;4.72;;
4486;SDS011;2256;48.740;9.106;2022-11-25T06:55:21;9.07;;;4.80;;
4486;SDS011;2256;48.740;9.106;2022-11-25T06:57:47;11.50;;;5.65;;
4486;SDS011;2256;48.740;9.106;2022-11-25T07:00:16;8.82;;;4.75;;
4486;SDS011;2256;48.740;9.106;2022-11-25T07:02:43;9.85;;;4.70;;
4486;SDS011;2256;48.740;9.106;2022-11-25T07:05:11;14.35;;;5.60;;
4486;SDS011;2256;48.740;9.106;2022-11-25T07:07:38;9.38;;;4.70;;
4486;SDS011;2256;48.740;9.106;2022-11-25T07:10:05;14.35;;;4.95;;
4486;SDS011;2256;48.740;9.106;2022-11-25T07:12:33;16.88;;;5.22;;
4486;SDS011;2256;48.740;9.106;2022-11-25T07:14:59;13.07;;;4.63;;
4486;SDS011;2256;48.740;9.106;2022-11-25T07:17:28;8.63;;;5.10;;
4486;SDS011;2256;48.740;9.106;2022-11-25T07:19:54;15.02;;;5.07;;
4486;SDS011;2256;48.740;9.106;2022-11-25T07:22:22;11.50;;;4.25;;
4486;SDS011;2256;48.740;9.106;2022-11-25T07:24:50;15.50;;;4.32;;
4486;SDS011;2256;48.740;9.106;2022-11-25T07:27:17;12.00;;;4.40;;
4486;SDS011;2256;48.740;9.106;2022-11-25T07:29:43;12.77;;;4.55;;
4486;SDS011;2256;48.740;9.106;2022-11-25T07:32:10;10.73;;;5.50;;
4486;SDS011;2256;48.740;9.106;2022-11-25T07:34:39;10.18;;;4.30;;
4486;SDS011;2256;48.740;9.106;2022-11-25T07:37:06;10.30;;;4.95;;
4486;SDS011;2256;48.740;9.106;2022-11-25T07:39:33;13.55;;;4.50;;
4486;SDS011;2256;48.740;9.106;2022-11-25T07:42:00;8.65;;;4.30;;
4486;SDS011;2256;48.740;9.106;2022-11-25T07:44:27;12.00;;;4.85;;
4486;SDS011;2256;48.740;9.106;2022-11-25T07:46:54;8.23;;;4.40;;
4486;SDS011;2256;48.740;9.106;2022-11-25T07:49:22;7.38;;;3.67;;
4486;SDS011;2256;48.740;9.106;2022-11-25T07:51:53;11.13;;;3.40;;
4486;SDS011;2256;48.740;9.106;2022-11-25T07:54:23;9.35;;;3.72;;
4486;SDS011;2256;48.740;9.106;2022-11-25T07:56:50;7.35;;;3.00;;
4486;SDS011;2256;48.740;9.106;2022-11-25T07:59:19;6.93;;;3.10;;
4486;SDS011;2256;48.740;9.106;2022-11-25T08:01:47;6.38;;;2.65;;
4486;SDS011;2256;48.740;9.106;2022-11-25T08:04:15;12.50;;;2.90;;
4486;SDS011;2256;48.740;9.106;2022-11-25T08:06:43;7.57;;;2.60;;
4486;SDS011;2256;48.740;9.106;2022-11-25T08:09:13;4.68;;;3.03;;
4486;SDS011;2256;48.740;9.106;2022-11-25T08:11:44;11.43;;;2.85;;
4486;SDS011;2256;48.740;9.106;2022-11-25T08:14:12;11.70;;;3.00;;
4486;SDS011;2256;48.740;9.106;2022-11-25T08:16:40;6.25;;;2.80;;
4486;SDS011;2256;48.740;9.106;2022-11-25T08:19:07;9.25;;;2.72;;
4486;SDS011;2256;48.740;9.106;2022-11-25T08:21:37;5.47;;;2.70;;
4486;SDS011;2256;48.740;9.106;2022-11-25T08:24:04;6.65;;;2.72;;
4486;SDS011;2256;48.740;9.106;2022-11-25T08:26:33;9.57;;;2.83;;
4486;SDS011;2256;48.740;9.106;2022-11-25T08:29:02;6.57;;;3.20;;
4486;SDS011;2256;48.740;9.106;2022-11-25T08:31:31;10.57;;;3.38;;
4486;SDS011;2256;48.740;9.106;2022-11-25T08:33:59;6.88;;;3.10;;
4486;SDS011;2256;48.740;9.106;2022-11-25T08:36:27;10.95;;;3.50;;
4486;SDS011;2256;48.740;9.106;2022-11-25T08:38:55;5.32;;;2.50;;
4486;SDS011;2256;48.740;9.106;2022-11-25T08:41:24;3.97;;;2.20;;
4486;SDS011;2256;48.740;9.106;2022-11-25T08:43:54;6.73;;;2.90;;
4486;SDS011;2256;48.740;9.106;2022-11-25T08:46:22;6.82;;;3.15;;
4486;SDS011;2256;48.740;9.106;2022-11-25T08:48:52;10.13;;;3.25;;
4486;SDS011;2256;48.740;9.106;2022-11-25T08:51:21;7.43;;;3.58;;
4486;SDS011;2256;48.740;9.106;2022-11-25T08:53:50;7.78;;;3.20;;
4486;SDS011;2256;48.740;9.106;2022-11-25T08:56:18;4.70;;;2.60;;
4486;SDS011;2256;48.740;9.106;2022-11-25T08:58:46;5.70;;;3.10;;
4486;SDS011;2256;48.740;9.106;2022-11-25T09:01:15;6.63;;;2.90;;
4486;SDS011;2256;48.740;9.106;2022-11-25T09:03:45;4.70;;;2.63;;
4486;SDS011;2256;48.740;9.106;2022-11-25T09:06:14;7.87;;;2.73;;
4486;SDS011;2256;48.740;9.106;2022-11-25T09:08:41;9.70;;;2.73;;
4486;SDS011;2256;48.740;9.106;2022-11-25T09:11:09;7.83;;;2.73;;
4486;SDS011;2256;48.740;9.106;2022-11-25T09:13:37;4.57;;;2.60;;
4486;SDS011;2256;48.740;9.106;2022-11-25T09:16:04;4.70;;;2.73;;
4486;SDS011;2256;48.740;9.106;2022-11-25T09:18:34;8.60;;;2.53;;
4486;SDS011;2256;48.740;9.106;2022-11-25T09:21:05;13.03;;;3.30;;
4486;SDS011;2256;48.740;9.106;2022-11-25T09:23:33;4.40;;;2.60;;
4486;SDS011;2256;48.740;9.106;2022-11-25T09:26:00;23.67;;;2.77;;
4486;SDS011;2256;48.740;9.106;2022-11-25T09:28:27;5.77;;;2.77;;
4486;SDS011;2256;48.740;9.106;2022-11-25T09:30:54;7.23;;;2.77;;
4486;SDS011;2256;48.740;9.106;2022-11-25T09:33:21;4.37;;;2.43;;
4486;SDS011;2256;48.740;9.106;2022-11-25T09:35:51;7.43;;;3.23;;
4486;SDS011;2256;48.740;9.106;2022-11-25T09:38:20;9.73;;;3.27;;
4486;SDS011;2256;48.740;9.106;2022-11-25T09:40:48;9.63;;;3.70;;
4486;SDS011;2256;48.740;9.106;2022-11-25T09:43:25;7.13;;;3.30;;
4486;SDS011;2256;48.740;9.106;2022-11-25T09:46:18;6.57;;;2.90;;
4486;SDS011;2256;48.740;9.106;2022-11-25T09:49:13;7.60;;;3.00;;
4486;SDS011;2256;48.740;9.106;2022-11-25T09:51:56;8.30;;;3.67;;
4486;SDS011;2256;48.740;9.106;2022-11-25T09:54:29;11.07;;;3.50;;
4486;SDS011;2256;48.740;9.106;2022-11-25T09:57:02;11.23;;;2.70;;
4486;SDS011;2256;48.740;9.106;2022-11-25T09:59:40;10.00;;;3.07;;
4486;SDS011;2256;48.740;9.106;2022-11-25T10:02:13;6.17;;;3.00;;
4486;SDS011;2256;48.740;9.106;2022-11-25T10:04:46;7.70;;;3.37;;
4486;SDS011;2256;48.740;9.106;2022-11-25T10:07:20;9.80;;;3.63;;
4486;SDS011;2256;48.740;9.106;2022-11-25T10:09:54;5.80;;;3.00;;
4486;SDS011;2256;48.740;9.106;2022-11-25T10:12:23;9.00;;;2.80;;
4486;SDS011;2256;48.740;9.106;2022-11-25T10:14:53;5.03;;;2.83;;
4486;SDS011;2256;48.740;9.106;2022-11-25T10:17:29;10.03;;;2.70;;
4486;SDS011;2256;48.740;9.106;2022-11-25T10:20:02;15.33;;;4.30;;
4486;SDS011;2256;48.740;9.106;2022-11-25T10:22:34;6.40;;;2.97;;
4486;SDS011;2256;48.740;9.106;2022-11-25T10:25:08;8.57;;;2.80;;
4486;SDS011;2256;48.740;9.106;2022-11-25T10:27:40;6.07;;;2.90;;
4486;SDS011;2256;48.740;9.106;2022-11-25T10:30:12;7.87;;;2.90;;
4486;SDS011;2256;48.740;9.106;2022-11-25T10:32:44;9.07;;;2.57;;
4486;SDS011;2256;48.740;9.106;2022-11-25T10:35:27;9.00;;;2.53;;
4486;SDS011;2256;48.740;9.106;2022-11-25T10:37:59;10.10;;;2.17;;
4486;SDS011;2256;48.740;9.106;2022-11-25T10:40:28;5.83;;;2.80;;
4486;SDS011;2256;48.740;9.106;2022-11-25T10:42:54;6.83;;;2.87;;
4486;SDS011;2256;48.740;9.106;2022-11-25T10:45:24;6.90;;;2.67;;
4486;SDS011;2256;48.740;9.106;2022-11-25T10:48:01;10.67;;;3.03;;
4486;SDS011;2256;48.740;9.106;2022-11-25T10:50:51;7.40;;;2.00;;
4486;SDS011;2256;48.740;9.106;2022-11-25T10:53:28;5.03;;;2.70;;
4486;SDS011;2256;48.740;9.106;2022-11-25T10:55:58;5.40;;;2.87;;
4486;SDS011;2256;48.740;9.106;2022-11-25T10:58:31;7.40;;;2.40;;
4486;SDS011;2256;48.740;9.106;2022-11-25T11:01:12;7.83;;;3.07;;
4486;SDS011;2256;48.740;9.106;2022-11-25T11:03:41;5.57;;;2.40;;
4486;SDS011;2256;48.740;9.106;2022-11-25T11:08:56;9.43;;;2.67;;
4486;SDS011;2256;48.740;9.106;2022-11-25T11:11:23;5.53;;;2.33;;
4486;SDS011;2256;48.740;9.106;2022-11-25T11:13:56;9.00;;;2.30;;
4486;SDS011;2256;48.740;9.106;2022-11-25T11:16:28;6.27;;;2.20;;
4486;SDS011;2256;48.740;9.106;2022-11-25T11:18:58;5.70;;;2.03;;
4486;SDS011;2256;48.740;9.106;2022-11-25T11:21:28;6.00;;;1.80;;
4486;SDS011;2256;48.740;9.106;2022-11-25T11:23:58;3.83;;;2.10;;
4486;SDS011;2256;48.740;9.106;2022-11-25T11:26:27;7.73;;;2.60;;
4486;SDS011;2256;48.740;9.106;2022-11-25T11:28:56;6.60;;;2.43;;
4486;SDS011;2256;48.740;9.106;2022-11-25T11:31:28;9.27;;;2.60;;
4486;SDS011;2256;48.740;9.106;2022-11-25T11:34:02;5.33;;;2.60;;
4486;SDS011;2256;48.740;9.106;2022-11-25T11:36:51;5.83;;;2.73;;
4486;SDS011;2256;48.740;9.106;2022-11-25T11:42:27;3.57;;;2.40;;
4486;SDS011;2256;48.740;9.106;2022-11-25T11:45:04;10.07;;;2.83;;
4486;SDS011;2256;48.740;9.106;2022-11-25T11:47:48;6.00;;;2.40;;
4486;SDS011;2256;48.740;9.106;2022-11-25T11:50:28;6.03;;;2.40;;
4486;SDS011;2256;48.740;9.106;2022-11-25T11:53:01;5.50;;;2.13;;
4486;SDS011;2256;48.740;9.106;2022-11-25T11:55:42;5.77;;;2.47;;
4486;SDS011;2256;48.740;9.106;2022-11-25T11:58:38;5.03;;;2.60;;
4486;SDS011;2256;48.740;9.106;2022-11-25T12:01:17;4.80;;;2.37;;
4486;SDS011;2256;48.740;9.106;2022-11-25T12:03:55;5.10;;;2.43;;
4486;SDS011;2256;48.740;9.106;2022-11-25T12:06:24;5.17;;;2.50;;
4486;SDS011;2256;48.740;9.106;2022-11-25T12:08:55;8.20;;;3.00;;
4486;SDS011;2256;48.740;9.106;2022-11-25T12:11:28;10.37;;;3.47;;
4486;SDS011;2256;48.740;9.106;2022-11-25T12:14:01;4.30;;;2.43;;
4486;SDS011;2256;48.740;9.106;2022-11-25T12:16:33;14.30;;;3.30;;
4486;SDS011;2256;48.740;9.106;2022-11-25T12:19:07;14.30;;;2.90;;
4486;SDS011;2256;48.740;9.106;2022-11-25T12:21:41;9.47;;;3.60;;
4486;SDS011;2256;48.740;9.106;2022-11-25T12:24:15;7.97;;;3.03;;
4486;SDS011;2256;48.740;9.106;2022-11-25T12:26:53;5.90;;;3.10;;
4486;SDS011;2256;48.740;9.106;2022-11-25T12:29:26;11.23;;;3.40;;
4486;SDS011;2256;48.740;9.106;2022-11-25T12:32:01;8.20;;;3.83;;
4486;SDS011;2256;48.740;9.106;2022-11-25T12:34:43;9.33;;;3.60;;
4486;SDS011;2256;48.740;9.106;2022-11-25T12:37:17;8.30;;;3.40;;
4486;SDS011;2256;48.740;9.106;2022-11-25T12:39:54;12.60;;;3.50;;
4486;SDS011;2256;48.740;9.106;2022-11-25T12:42:29;11.93;;;3.40;;
4486;SDS011;2256;48.740;9.106;2022-11-25T12:44:58;8.17;;;3.50;;
4486;SDS011;2256;48.740;9.106;2022-11-25T12:47:30;8.23;;;3.23;;
4486;SDS011;2256;48.740;9.106;2022-11-25T12:49:58;12.53;;;3.47;;
4486;SDS011;2256;48.740;9.106;2022-11-25T12:52:31;7.27;;;2.97;;
4486;SDS011;2256;48.740;9.106;2022-11-25T12:55:14;12.70;;;2.87;;
4486;SDS011;2256;48.740;9.106;2022-11-25T12:58:01;4.60;;;2.83;;
4486;SDS011;2256;48.740;9.106;2022-11-25T13:00:41;14.63;;;3.07;;
4486;SDS011;2256;48.740;9.106;2022-11-25T13:06:57;9.70;;;3.67;;
4486;SDS011;2256;48.740;9.106;2022-11-25T13:09:52;11.30;;;3.37;;
4486;SDS011;2256;48.740;9.106;2022-11-25T13:12:44;8.80;;;2.93;;
4486;SDS011;2256;48.740;9.106;2022-11-25T13:15:20;4.83;;;3.10;;
4486;SDS011;2256;48.740;9.106;2022-11-25T13:17:53;8.73;;;3.47;;
4486;SDS011;2256;48.740;9.106;2022-11-25T13:23:24;12.47;;;3.13;;
4486;SDS011;2256;48.740;9.106;2022-11-25T13:26:32;19.53;;;3.70;;
4486;SDS011;2256;48.740;9.106;2022-11-25T13:29:00;16.67;;;4.07;;
4486;SDS011;2256;48.740;9.106;2022-11-25T13:31:32;6.50;;;3.30;;
4486;SDS011;2256;48.740;9.106;2022-11-25T13:34:24;5.60;;;3.30;;
4486;SDS011;2256;48.740;9.106;2022-11-25T13:36:53;9.33;;;2.93;;
4486;SDS011;2256;48.740;9.106;2022-11-25T13:39:27;11.23;;;3.43;;
4486;SDS011;2256;48.740;9.106;2022-11-25T13:42:11;14.93;;;4.13;;
4486;SDS011;2256;48.740;9.106;2022-11-25T13:44:47;9.07;;;3.30;;
4486;SDS011;2256;48.740;9.106;2022-11-25T13:47:28;9.30;;;2.90;;
4486;SDS011;2256;48.740;9.106;2022-11-25T13:49:59;4.00;;;2.47;;
4486;SDS011;2256;48.740;9.106;2022-11-25T13:52:30;9.23;;;3.60;;
4486;SDS011;2256;48.740;9.106;2022-11-25T13:55:02;9.00;;;3.00;;
4486;SDS011;2256;48.740;9.106;2022-11-25T13:57:34;9.50;;;3.10;;
4486;SDS011;2256;48.740;9.106;2022-11-25T14:00:06;6.37;;;2.50;;
4486;SDS011;2256;48.740;9.106;2022-11-25T14:02:41;7.37;;;3.53;;
4486;SDS011;2256;48.740;9.106;2022-11-25T14:05:17;7.60;;;3.47;;
4486;SDS011;2256;48.740;9.106;2022-11-25T14:08:03;5.63;;;2.70;;
4486;SDS011;2256;48.740;9.106;2022-11-25T14:10:40;17.43;;;2.60;;
4486;SDS011;2256;48.740;9.106;2022-11-25T14:13:15;10.63;;;3.47;;
4486;SDS011;2256;48.740;9.106;2022-11-25T14:15:59;6.37;;;2.60;;
4486;SDS011;2256;48.740;9.106;2022-11-25T14:18:42;9.57;;;2.53;;
4486;SDS011;2256;48.740;9.106;2022-11-25T14:21:20;15.33;;;2.83;;
4486;SDS011;2256;48.740;9.106;2022-11-25T14:24:10;10.20;;;2.30;;
4486;SDS011;2256;48.740;9.106;2022-11-25T14:26:49;9.37;;;2.67;;
4486;SDS011;2256;48.740;9.106;2022-11-25T14:29:18;9.33;;;2.47;;
4486;SDS011;2256;48.740;9.106;2022-11-25T14:31:48;11.07;;;2.80;;
4486;SDS011;2256;48.740;9.106;2022-11-25T14:34:20;6.50;;;2.40;;
4486;SDS011;2256;48.740;9.106;2022-11-25T14:36:53;9.73;;;2.63;;
4486;SDS011;2256;48.740;9.106;2022-11-25T14:39:29;11.23;;;2.70;;
4486;SDS011;2256;48.740;9.106;2022-11-25T14:42:01;18.97;;;2.70;;
4486;SDS011;2256;48.740;9.106;2022-11-25T14:44:33;6.77;;;2.50;;
4486;SDS011;2256;48.740;9.106;2022-11-25T14:47:04;10.93;;;2.60;;
4486;SDS011;2256;48.740;9.106;2022-11-25T14:49:45;11.17;;;2.10;;
4486;SDS011;2256;48.740;9.106;2022-11-25T14:52:20;8.30;;;2.10;;
4486;SDS011;2256;48.740;9.106;2022-11-25T14:54:49;12.90;;;2.47;;
4486;SDS011;2256;48.740;9.106;2022-11-25T14:57:20;8.20;;;2.37;;
4486;SDS011;2256;48.740;9.106;2022-11-25T14:59:49;5.87;;;2.10;;
4486;SDS011;2256;48.740;9.106;2022-11-25T15:02:24;8.07;;;2.23;;
4486;SDS011;2256;48.740;9.106;2022-11-25T15:05:01;8.43;;;2.47;;
4486;SDS011;2256;48.740;9.106;2022-11-25T15:07:33;5.93;;;2.10;;
4486;SDS011;2256;48.740;9.106;2022-11-25T15:10:00;8.90;;;2.20;;
4486;SDS011;2256;48.740;9.106;2022-11-25T15:12:29;8.33;;;2.70;;
4486;SDS011;2256;48.740;9.106;2022-11-25T15:14:57;20.33;;;2.70;;
4486;SDS011;2256;48.740;9.106;2022-11-25T15:17:25;7.83;;;2.33;;
4486;SDS011;2256;48.740;9.106;2022-11-25T15:19:56;15.93;;;2.70;;
4486;SDS011;2256;48.740;9.106;2022-11-25T15:22:27;6.23;;;2.17;;
4486;SDS011;2256;48.740;9.106;2022-11-25T15:24:54;12.97;;;2.33;;
4486;SDS011;2256;48.740;9.106;2022-11-25T15:27:32;11.37;;;2.80;;
4486;SDS011;2256;48.740;9.106;2022-11-25T15:29:59;11.97;;;1.77;;
4486;SDS011;2256;48.740;9.106;2022-11-25T15:32:26;8.23;;;2.20;;
4486;SDS011;2256;48.740;9.106;2022-11-25T15:34:55;11.60;;;2.70;;
4486;SDS011;2256;48.740;9.106;2022-11-25T15:37:24;15.57;;;2.20;;
4486;SDS011;2256;48.740;9.106;2022-11-25T15:42:56;6.73;;;2.50;;
4486;SDS011;2256;48.740;9.106;2022-11-25T15:45:24;5.93;;;2.37;;